Terminal Aerodrome Forecast
Issued by NWS

Home | Current Version | Previous Version | Text Only | Print | Product List | Glossary On
Versions: 1 2 3 4 5 6 7 8 9 10 11 12 13
674
FTUS43 KGRR 081729
TAFAZO
TAF
KAZO 081729Z 0818/0918 26006KT P6SM BKN015
     FM082000 28008KT P6SM -SHSN OVC015
     FM082300 29009KT 3SM -SHSN BR OVC015
     FM090500 30010KT 6SM -SHSN BR OVC009
     FM091300 31009KT P6SM VCSH OVC025=

USA.gov is the U.S. government's official web portal to all federal, state and local government web resources and services.